Kingsville, TX (78363)

4:25 AM CDT on May 26, 2017 (GMT -0500)
HOME | | Change Station
Active Advisory: Heat Advisory

Elev 33 ft 27.52 °N, 97.88 °W | Updated 7 minutes ago

Overcast
Overcast
78.9 °F
Feels Like 82 °F
N
3.0
Wind Variable Wind from SE
Gusts 13.0 mph

Today
High -- | Low -- °F
--% Chance of Precip.
Yesterday
High -- | Low -- °F
Precip. -- in
Pressure 29.75 in
Visibility 10.0 miles
Clouds Overcast 2100 ft
Heat Index 82 °F
Dew Point 74 °F
Humidity 86%
Rainfall 0.00 in
Snow Depth Not available.
6:37 AM 8:19 PM
New Moon, 1% visible
METAR KNQI 260856Z AUTO 16019G24KT 10SM OVC021 27/24 A2976 RMK AO2 SLP073 T02670244 58001
Pressure 29.75 in
Visibility 10.0 miles
Clouds Overcast 2100 ft
Heat Index 82 °F
Dew Point 74 °F
Humidity 86%
Rainfall 0.00 in
Snow Depth Not available.
6:37 AM 8:19 PM
New Moon, 1% visible
METAR KNQI 260856Z AUTO 16019G24KT 10SM OVC021 27/24 A2976 RMK AO2 SLP073 T02670244 58001

Get Your Daily Forecast Email!

Thanks for signing up!

Be on the lookout for a verification email in your inbox.

You'll start receiving severe weather alerts in your inbox..

×

10-Day Weather Forecast

Almanac

Astronomy

May. 26, 2017 Rise Set
Actual Time
Civil Twilight
Nautical Twilight
Astronomical Twilight
Moon
Length of Visible Light
Length of Day
Tomorrow will be .
, % of the Moon is Illuminated

Today's Extremes

State Highs State Lows

Community

WunderPhotos

Category 6

Welcome to Category 6. This is the collective home for Weather Underground's featured writeups by Dr. Jeff Masters (right), Bob Henson (left), Chris Burt, and other regular contributors.

Nearby

Air Quality

  Air Quality AQ Index Pollutant
Not available.

Snow Depth

Station Depth Elevation

Earthquake Activity

City Distance Mag. Time & Date
Minimum magnitude displayed is 2.5.

Coastal Water Temperatures

Place Temperature

Stations

Nearby Weather Stations

Station Location Temp. Windchill Dew Point Humidity Wind Precip. Elev Updated Type
                   

Watches & Warnings

Heat Advisory
Issued: 4:08 AM CDT May. 26, 2017 – National Weather Service

... Heat advisory in effect from 1 PM this afternoon to 7 PM CDT
this evening...

The National Weather Service in Corpus Christi has issued a heat
advisory, which is in effect from 1 PM this afternoon to 7 PM CDT
this evening.

* Temperature... highs this afternoon between 98 and 103 will
produce heat index values between 110 and 114.

* Impacts... prolonged outdoor activity without proper rest...
hydration... or other precautionary actions may result in heat
exhaustion or even heat stroke.

Precautionary/preparedness actions...

A heat advisory means that heat indices of 110 degrees or higher
are expected over most of the area for at least two hours.
Prolonged exposure combined with physical activity could cause
heat exhaustion and even heat stroke. The elderly, the very
Young, the sick, and people with heart conditions are most at
risk in extreme heat.